THY8KC URWW-EBBR
Flight info
| Callsign | THY8KC |
|---|---|
| Flight time | 2h 51m |
| Altitude | 40000 |
| Route | ST2E ST T561 UBONA L749 ABUTO M55 TOBLO Z860 OGARA L23 GORAT/N0481F400 DCT MOLIL/N0494F430 DCT KELOD L979 GOVEN DCT ESIKA Z20 MAG L986 POVEL DCT ABAMI Z717 NEREL/N0402F240 T855 AGENI/N0369F180 T855 BATTY |
| Aircraft | A359/H-SDE2E3GHIJ3J4J5LM1ORWXY/LB1D1 |
Departure
| Time | 2026-05-07 17:39 |
|---|---|
| Airport | Volgograd International Airport (URWW) |
Arrival
| Time | 2026-05-07 20:30 |
|---|---|
| Airport | Brussels Airport (EBBR) |
| Time | Latitude | Longitude | Altitude | Speed | Heading |
|---|---|---|---|---|---|
| 2026-05-07 17:00 | 48.78941 | 44.34976 | 492 ft | 0 kts | 340° |
| 2026-05-07 17:24 | 48.78924 | 44.34986 | 487 ft | 4 kts | 339° |
| 2026-05-07 17:24 | 48.78899 | 44.35001 | 482 ft | 4 kts | 343° |
| 2026-05-07 17:25 | 48.78874 | 44.35003 | 482 ft | 4 kts | 26° |
| 2026-05-07 17:25 | 48.78854 | 44.34978 | 482 ft | 4 kts | 59° |
| 2026-05-07 17:25 | 48.78847 | 44.34957 | 482 ft | 1 kts | 69° |
| 2026-05-07 17:25 | 48.78847 | 44.34954 | 482 ft | 0 kts | 69° |
| 2026-05-07 17:29 | 48.78847 | 44.34955 | 482 ft | 1 kts | 69° |
| 2026-05-07 17:29 | 48.78858 | 44.34999 | 482 ft | 8 kts | 69° |
| 2026-05-07 17:30 | 48.78865 | 44.35074 | 485 ft | 6 kts | 107° |
| 2026-05-07 17:30 | 48.78829 | 44.35125 | 482 ft | 8 kts | 144° |
| 2026-05-07 17:30 | 48.78769 | 44.35166 | 485 ft | 8 kts | 160° |
| 2026-05-07 17:30 | 48.78741 | 44.35182 | 487 ft | 0 kts | 159° |
| 2026-05-07 17:31 | 48.78716 | 44.35196 | 485 ft | 7 kts | 161° |
| 2026-05-07 17:31 | 48.78700 | 44.35204 | 486 ft | 0 kts | 161° |
| 2026-05-07 17:36 | 48.78683 | 44.35213 | 484 ft | 7 kts | 161° |
| 2026-05-07 17:36 | 48.78618 | 44.35243 | 483 ft | 12 kts | 165° |
| 2026-05-07 17:36 | 48.78548 | 44.35208 | 481 ft | 11 kts | 225° |
| 2026-05-07 17:37 | 48.78531 | 44.35162 | 481 ft | 0 kts | 244° |
| 2026-05-07 17:37 | 48.78530 | 44.35159 | 481 ft | 0 kts | 244° |
| 2026-05-07 17:38 | 48.78530 | 44.35158 | 491 ft | 0 kts | 244° |
| 2026-05-07 17:38 | 48.78508 | 44.35089 | 486 ft | 31 kts | 245° |
| 2026-05-07 17:38 | 48.78297 | 44.34419 | 478 ft | 108 kts | 244° |
| 2026-05-07 17:38 | 48.77865 | 44.33086 | 532 ft | 166 kts | 244° |
| 2026-05-07 17:39 | 48.77304 | 44.31426 | 1101 ft | 185 kts | 244° |
| 2026-05-07 17:39 | 48.76679 | 44.29583 | 1739 ft | 205 kts | 245° |
| 2026-05-07 17:39 | 48.76019 | 44.27655 | 2575 ft | 206 kts | 245° |
| 2026-05-07 17:39 | 48.75486 | 44.25635 | 3140 ft | 217 kts | 263° |
| 2026-05-07 17:40 | 48.75731 | 44.23302 | 3432 ft | 239 kts | 300° |
| 2026-05-07 17:40 | 48.76907 | 44.21470 | 4049 ft | 249 kts | 325° |
| 2026-05-07 17:40 | 48.78347 | 44.19960 | 4852 ft | 254 kts | 327° |
| 2026-05-07 17:40 | 48.79820 | 44.18432 | 5727 ft | 258 kts | 327° |
| 2026-05-07 17:41 | 48.81297 | 44.16870 | 6650 ft | 260 kts | 327° |
| 2026-05-07 17:41 | 48.82781 | 44.15281 | 7627 ft | 263 kts | 327° |
| 2026-05-07 17:41 | 48.84282 | 44.13662 | 8583 ft | 266 kts | 327° |
| 2026-05-07 17:41 | 48.85796 | 44.12023 | 9544 ft | 269 kts | 327° |
| 2026-05-07 17:42 | 48.87330 | 44.10357 | 10412 ft | 276 kts | 327° |
| 2026-05-07 17:42 | 48.88954 | 44.08596 | 10838 ft | 298 kts | 327° |
| 2026-05-07 17:42 | 48.90702 | 44.06696 | 11292 ft | 318 kts | 327° |
| 2026-05-07 17:42 | 48.92530 | 44.04703 | 12006 ft | 327 kts | 326° |
| 2026-05-07 17:43 | 48.94389 | 44.02669 | 12859 ft | 332 kts | 327° |
| 2026-05-07 17:43 | 48.96282 | 44.00597 | 13702 ft | 338 kts | 327° |
| 2026-05-07 17:43 | 48.98204 | 43.98492 | 14458 ft | 343 kts | 327° |
| 2026-05-07 17:43 | 49.00150 | 43.96359 | 15221 ft | 347 kts | 327° |
| 2026-05-07 17:44 | 49.02123 | 43.94196 | 15960 ft | 351 kts | 327° |
| 2026-05-07 17:44 | 49.04118 | 43.92006 | 16608 ft | 355 kts | 327° |
| 2026-05-07 17:44 | 49.06127 | 43.89797 | 16923 ft | 358 kts | 327° |
| 2026-05-07 17:44 | 49.08154 | 43.87566 | 16971 ft | 360 kts | 326° |
| 2026-05-07 17:45 | 49.10182 | 43.85332 | 16968 ft | 361 kts | 326° |
| 2026-05-07 17:45 | 49.11532 | 43.83844 | 16961 ft | 361 kts | 326° |
| 2026-05-07 17:45 | 49.13571 | 43.81595 | 16968 ft | 362 kts | 326° |
| 2026-05-07 17:45 | 49.16297 | 43.78583 | 16980 ft | 362 kts | 326° |
| 2026-05-07 17:46 | 49.17679 | 43.77056 | 17162 ft | 364 kts | 326° |
| 2026-05-07 17:46 | 49.19712 | 43.74807 | 17819 ft | 367 kts | 326° |
| 2026-05-07 17:46 | 49.21787 | 43.72511 | 18613 ft | 369 kts | 326° |
| 2026-05-07 17:46 | 49.23878 | 43.70187 | 19332 ft | 373 kts | 326° |
| 2026-05-07 17:47 | 49.25886 | 43.67633 | 20042 ft | 379 kts | 318° |
| 2026-05-07 17:47 | 49.27701 | 43.64669 | 20756 ft | 384 kts | 313° |
| 2026-05-07 17:47 | 49.29431 | 43.61521 | 21460 ft | 389 kts | 311° |
| 2026-05-07 17:47 | 49.31127 | 43.58266 | 22145 ft | 393 kts | 310° |
| 2026-05-07 17:48 | 49.32818 | 43.54954 | 22861 ft | 397 kts | 310° |
| 2026-05-07 17:48 | 49.34525 | 43.51606 | 23556 ft | 401 kts | 310° |
| 2026-05-07 17:48 | 49.36259 | 43.48224 | 24131 ft | 405 kts | 310° |
| 2026-05-07 17:48 | 49.38013 | 43.44825 | 24692 ft | 408 kts | 310° |
| 2026-05-07 17:49 | 49.39789 | 43.41400 | 25262 ft | 412 kts | 310° |
| 2026-05-07 17:49 | 49.41586 | 43.37944 | 25812 ft | 416 kts | 310° |
| 2026-05-07 17:49 | 49.43397 | 43.34459 | 26360 ft | 419 kts | 310° |
| 2026-05-07 17:49 | 49.45226 | 43.30939 | 26946 ft | 423 kts | 310° |
| 2026-05-07 17:50 | 49.47063 | 43.27398 | 27494 ft | 426 kts | 310° |
| 2026-05-07 17:50 | 49.48918 | 43.23816 | 28049 ft | 430 kts | 310° |
| 2026-05-07 17:50 | 49.50787 | 43.20201 | 28565 ft | 433 kts | 310° |
| 2026-05-07 17:50 | 49.52666 | 43.16562 | 29104 ft | 437 kts | 310° |
| 2026-05-07 17:51 | 49.54565 | 43.12877 | 29592 ft | 440 kts | 310° |
| 2026-05-07 17:51 | 49.56475 | 43.09167 | 30074 ft | 444 kts | 310° |
| 2026-05-07 17:51 | 49.58396 | 43.05428 | 30481 ft | 447 kts | 310° |
| 2026-05-07 17:51 | 49.60329 | 43.01662 | 30917 ft | 450 kts | 310° |
| 2026-05-07 17:52 | 49.62277 | 42.97861 | 31318 ft | 453 kts | 310° |
| 2026-05-07 17:52 | 49.64234 | 42.94037 | 31703 ft | 456 kts | 310° |
| 2026-05-07 17:52 | 49.66199 | 42.90191 | 32114 ft | 458 kts | 310° |
| 2026-05-07 17:52 | 49.68176 | 42.86316 | 32498 ft | 461 kts | 309° |
| 2026-05-07 17:53 | 49.70163 | 42.82416 | 32880 ft | 463 kts | 309° |
| 2026-05-07 17:53 | 49.72161 | 42.78490 | 33256 ft | 466 kts | 309° |
| 2026-05-07 17:53 | 49.74167 | 42.74540 | 33596 ft | 468 kts | 309° |
| 2026-05-07 17:53 | 49.76175 | 42.70582 | 33939 ft | 471 kts | 309° |
| 2026-05-07 17:54 | 49.78205 | 42.66575 | 34208 ft | 473 kts | 309° |
| 2026-05-07 17:54 | 49.80232 | 42.62567 | 34500 ft | 474 kts | 309° |
| 2026-05-07 17:54 | 49.82264 | 42.58542 | 34876 ft | 474 kts | 309° |
| 2026-05-07 17:54 | 49.84288 | 42.54526 | 35262 ft | 473 kts | 309° |
| 2026-05-07 17:55 | 49.86314 | 42.50500 | 35616 ft | 473 kts | 309° |
| 2026-05-07 17:55 | 49.88332 | 42.46484 | 35963 ft | 473 kts | 309° |
| 2026-05-07 17:55 | 49.90351 | 42.42462 | 36281 ft | 472 kts | 309° |
| 2026-05-07 17:55 | 49.92366 | 42.38439 | 36607 ft | 472 kts | 308° |
| 2026-05-07 17:56 | 49.94382 | 42.34411 | 36931 ft | 472 kts | 308° |
| 2026-05-07 17:56 | 49.96396 | 42.30379 | 37236 ft | 472 kts | 308° |
| 2026-05-07 17:56 | 49.98405 | 42.26351 | 37553 ft | 472 kts | 308° |
| 2026-05-07 17:56 | 50.00414 | 42.22319 | 37863 ft | 472 kts | 308° |
| 2026-05-07 17:57 | 50.02392 | 42.18340 | 38167 ft | 471 kts | 308° |
| 2026-05-07 17:57 | 50.03742 | 42.15621 | 38388 ft | 471 kts | 308° |
| 2026-05-07 17:57 | 50.06420 | 42.10221 | 38728 ft | 471 kts | 308° |
| 2026-05-07 17:57 | 50.08419 | 42.06183 | 38942 ft | 471 kts | 308° |
| 2026-05-07 17:58 | 50.10418 | 42.02138 | 39108 ft | 472 kts | 308° |
| 2026-05-07 17:58 | 50.12419 | 41.98083 | 39253 ft | 473 kts | 308° |
| 2026-05-07 17:58 | 50.14427 | 41.94010 | 39428 ft | 474 kts | 308° |
| 2026-05-07 17:58 | 50.16405 | 41.89988 | 39640 ft | 473 kts | 307° |
| 2026-05-07 17:59 | 50.18422 | 41.85845 | 39816 ft | 474 kts | 306° |
| 2026-05-07 17:59 | 50.20213 | 41.81618 | 39936 ft | 475 kts | 302° |
| 2026-05-07 17:59 | 50.23729 | 41.72819 | 39979 ft | 477 kts | 301° |
| 2026-05-07 18:00 | 50.27185 | 41.63967 | 39978 ft | 477 kts | 301° |
| 2026-05-07 18:00 | 50.30628 | 41.55105 | 39979 ft | 477 kts | 301° |
| 2026-05-07 18:01 | 50.34071 | 41.46233 | 39976 ft | 477 kts | 301° |
| 2026-05-07 18:01 | 50.37512 | 41.37349 | 39982 ft | 477 kts | 301° |
| 2026-05-07 18:02 | 50.42663 | 41.23998 | 39981 ft | 477 kts | 301° |
| 2026-05-07 18:03 | 50.46084 | 41.15088 | 39981 ft | 477 kts | 301° |
| 2026-05-07 18:03 | 50.49499 | 41.06167 | 39981 ft | 477 kts | 301° |
| 2026-05-07 18:04 | 50.52909 | 40.97225 | 39982 ft | 477 kts | 301° |
| 2026-05-07 18:04 | 50.56309 | 40.88280 | 39984 ft | 476 kts | 301° |
| 2026-05-07 18:05 | 50.59702 | 40.79322 | 39984 ft | 476 kts | 300° |
| 2026-05-07 18:05 | 50.63118 | 40.70387 | 39986 ft | 476 kts | 301° |
| 2026-05-07 18:06 | 50.66590 | 40.61501 | 39983 ft | 476 kts | 301° |
| 2026-05-07 18:06 | 50.70060 | 40.52601 | 39984 ft | 476 kts | 301° |
| 2026-05-07 18:07 | 50.73505 | 40.43698 | 39984 ft | 475 kts | 301° |
| 2026-05-07 18:07 | 50.76943 | 40.34769 | 39987 ft | 475 kts | 301° |
| 2026-05-07 18:08 | 50.80368 | 40.25838 | 39982 ft | 475 kts | 301° |
| 2026-05-07 18:08 | 50.83788 | 40.16890 | 39987 ft | 475 kts | 301° |
| 2026-05-07 18:09 | 50.87202 | 40.07930 | 39984 ft | 475 kts | 301° |
| 2026-05-07 18:09 | 50.90369 | 39.98752 | 39981 ft | 475 kts | 297° |
| 2026-05-07 18:10 | 50.93333 | 39.89394 | 39982 ft | 475 kts | 296° |
| 2026-05-07 18:10 | 50.96319 | 39.80042 | 39987 ft | 475 kts | 297° |
| 2026-05-07 18:11 | 50.99335 | 39.70734 | 39987 ft | 474 kts | 297° |
| 2026-05-07 18:11 | 51.02719 | 39.61747 | 39982 ft | 474 kts | 303° |
| 2026-05-07 18:12 | 51.06368 | 39.53010 | 39985 ft | 474 kts | 303° |
| 2026-05-07 18:12 | 51.10049 | 39.44304 | 39985 ft | 474 kts | 303° |
| 2026-05-07 18:13 | 51.13744 | 39.35601 | 39980 ft | 475 kts | 306° |
| 2026-05-07 18:13 | 51.17770 | 39.27347 | 39982 ft | 475 kts | 308° |
| 2026-05-07 18:14 | 51.21917 | 39.19060 | 39987 ft | 475 kts | 308° |
| 2026-05-07 18:14 | 51.26041 | 39.10841 | 39986 ft | 475 kts | 308° |
| 2026-05-07 18:15 | 51.30131 | 39.02649 | 39984 ft | 475 kts | 308° |
| 2026-05-07 18:15 | 51.34238 | 38.94389 | 39989 ft | 474 kts | 308° |
| 2026-05-07 18:16 | 51.38340 | 38.86108 | 39990 ft | 474 kts | 308° |
| 2026-05-07 18:16 | 51.42409 | 38.77794 | 39994 ft | 474 kts | 308° |
| 2026-05-07 18:17 | 51.46459 | 38.69445 | 39992 ft | 474 kts | 307° |
| 2026-05-07 18:17 | 51.50499 | 38.61101 | 39991 ft | 473 kts | 307° |
| 2026-05-07 18:18 | 51.54538 | 38.52747 | 39990 ft | 473 kts | 307° |
| 2026-05-07 18:18 | 51.58570 | 38.44384 | 39999 ft | 473 kts | 307° |
| 2026-05-07 18:19 | 51.62592 | 38.36016 | 39994 ft | 472 kts | 307° |
| 2026-05-07 18:19 | 51.66601 | 38.27646 | 39994 ft | 472 kts | 307° |
| 2026-05-07 18:20 | 51.70604 | 38.19261 | 39994 ft | 472 kts | 307° |
| 2026-05-07 18:20 | 51.74598 | 38.10867 | 39992 ft | 472 kts | 307° |
| 2026-05-07 18:21 | 51.78588 | 38.02456 | 39993 ft | 471 kts | 307° |
| 2026-05-07 18:21 | 51.83057 | 37.94735 | 39997 ft | 471 kts | 316° |
| 2026-05-07 18:22 | 51.87868 | 37.87524 | 39992 ft | 471 kts | 317° |
| 2026-05-07 18:22 | 51.92720 | 37.80391 | 39993 ft | 471 kts | 317° |
| 2026-05-07 18:23 | 51.97565 | 37.73248 | 39990 ft | 471 kts | 317° |
| 2026-05-07 18:23 | 52.02399 | 37.66077 | 39991 ft | 471 kts | 317° |
| 2026-05-07 18:24 | 52.07217 | 37.58894 | 39993 ft | 471 kts | 317° |
| 2026-05-07 18:24 | 52.12040 | 37.51681 | 39988 ft | 471 kts | 317° |
| 2026-05-07 18:25 | 52.16853 | 37.44462 | 39988 ft | 470 kts | 316° |
| 2026-05-07 18:25 | 52.21658 | 37.37233 | 39988 ft | 470 kts | 316° |
| 2026-05-07 18:26 | 52.26455 | 37.29993 | 39982 ft | 470 kts | 316° |
| 2026-05-07 18:26 | 52.31248 | 37.22738 | 39983 ft | 470 kts | 316° |
| 2026-05-07 18:27 | 52.35951 | 37.15426 | 39988 ft | 469 kts | 311° |
| 2026-05-07 18:27 | 52.39631 | 37.06611 | 39980 ft | 467 kts | 294° |
| 2026-05-07 18:28 | 52.41918 | 36.96668 | 39981 ft | 467 kts | 288° |
| 2026-05-07 18:28 | 52.43918 | 36.86537 | 39983 ft | 467 kts | 287° |
| 2026-05-07 18:29 | 52.45867 | 36.76441 | 39982 ft | 467 kts | 287° |
| 2026-05-07 18:29 | 52.47843 | 36.66289 | 39981 ft | 467 kts | 288° |
| 2026-05-07 18:30 | 52.49827 | 36.56129 | 39977 ft | 467 kts | 288° |
| 2026-05-07 18:30 | 52.51483 | 36.47624 | 39977 ft | 467 kts | 288° |
| 2026-05-07 18:31 | 52.53453 | 36.37456 | 39984 ft | 467 kts | 287° |
| 2026-05-07 18:31 | 52.55415 | 36.27274 | 39981 ft | 467 kts | 287° |
| 2026-05-07 18:32 | 52.57364 | 36.17098 | 39982 ft | 466 kts | 287° |
| 2026-05-07 18:32 | 52.59295 | 36.06994 | 39980 ft | 466 kts | 287° |
| 2026-05-07 18:33 | 52.61224 | 35.96809 | 39978 ft | 466 kts | 287° |
| 2026-05-07 18:33 | 52.63145 | 35.86612 | 39977 ft | 466 kts | 287° |
| 2026-05-07 18:34 | 52.65057 | 35.76419 | 39984 ft | 466 kts | 287° |
| 2026-05-07 18:34 | 52.66958 | 35.66228 | 39977 ft | 465 kts | 287° |
| 2026-05-07 18:35 | 52.68852 | 35.56024 | 39981 ft | 465 kts | 287° |
| 2026-05-07 18:35 | 52.70737 | 35.45823 | 39974 ft | 465 kts | 287° |
| 2026-05-07 18:36 | 52.72622 | 35.35612 | 39973 ft | 466 kts | 287° |
| 2026-05-07 18:36 | 52.74499 | 35.25391 | 39974 ft | 464 kts | 286° |
| 2026-05-07 18:37 | 52.76360 | 35.15196 | 39978 ft | 464 kts | 286° |
| 2026-05-07 18:37 | 52.78212 | 35.04993 | 39963 ft | 464 kts | 286° |
| 2026-05-07 18:38 | 52.80054 | 34.94783 | 39964 ft | 464 kts | 286° |
| 2026-05-07 18:38 | 52.81888 | 34.84565 | 39961 ft | 464 kts | 286° |
| 2026-05-07 18:39 | 52.83709 | 34.74360 | 39964 ft | 462 kts | 286° |
| 2026-05-07 18:39 | 52.85518 | 34.64168 | 39965 ft | 462 kts | 286° |
| 2026-05-07 18:40 | 52.87318 | 34.53976 | 39957 ft | 461 kts | 285° |
| 2026-05-07 18:40 | 52.89106 | 34.43765 | 39955 ft | 462 kts | 285° |
| 2026-05-07 18:41 | 52.90897 | 34.33477 | 39961 ft | 466 kts | 285° |
| 2026-05-07 18:41 | 52.92681 | 34.23181 | 39955 ft | 463 kts | 285° |
| 2026-05-07 18:42 | 52.94661 | 34.11687 | 39950 ft | 459 kts | 285° |
| 2026-05-07 18:42 | 52.98106 | 33.91314 | 39944 ft | 458 kts | 282° |
| 2026-05-07 18:43 | 52.98901 | 33.70296 | 39940 ft | 456 kts | 270° |
| 2026-05-07 18:43 | 52.98860 | 33.49231 | 39941 ft | 456 kts | 270° |
| 2026-05-07 18:44 | 52.98823 | 33.28179 | 39939 ft | 456 kts | 270° |
| 2026-05-07 18:44 | 52.98760 | 33.07276 | 39935 ft | 456 kts | 269° |
| 2026-05-07 18:45 | 52.98656 | 32.86244 | 39933 ft | 456 kts | 269° |
| 2026-05-07 18:45 | 52.98516 | 32.65200 | 39933 ft | 457 kts | 269° |
| 2026-05-07 18:46 | 52.98339 | 32.44182 | 39927 ft | 454 kts | 269° |
| 2026-05-07 18:46 | 52.98126 | 32.23245 | 39926 ft | 454 kts | 269° |
| 2026-05-07 18:47 | 52.97875 | 32.02303 | 39922 ft | 454 kts | 268° |
| 2026-05-07 18:47 | 52.97588 | 31.81365 | 39915 ft | 454 kts | 268° |
| 2026-05-07 18:48 | 52.97264 | 31.60397 | 39919 ft | 455 kts | 268° |
| 2026-05-07 18:48 | 52.96383 | 31.23877 | 39908 ft | 454 kts | 264° |
| 2026-05-07 18:49 | 52.94021 | 30.82091 | 39905 ft | 456 kts | 264° |
| 2026-05-07 18:49 | 52.91675 | 30.40327 | 39933 ft | 454 kts | 264° |
| 2026-05-07 18:50 | 52.89203 | 29.99039 | 39946 ft | 453 kts | 263° |
| 2026-05-07 18:50 | 52.86569 | 29.57482 | 39955 ft | 453 kts | 263° |
| 2026-05-07 18:51 | 52.83802 | 29.16162 | 39935 ft | 451 kts | 263° |
| 2026-05-07 18:51 | 52.83098 | 28.74906 | 39928 ft | 452 kts | 276° |
| 2026-05-07 18:52 | 52.86866 | 28.33787 | 39921 ft | 452 kts | 276° |
| 2026-05-07 18:52 | 52.90460 | 27.92496 | 39920 ft | 454 kts | 276° |
| 2026-05-07 18:53 | 52.93898 | 27.51318 | 39922 ft | 449 kts | 275° |
| 2026-05-07 18:53 | 52.97178 | 27.10263 | 39928 ft | 448 kts | 275° |
| 2026-05-07 18:54 | 53.00303 | 26.69340 | 39926 ft | 447 kts | 274° |
| 2026-05-07 18:54 | 53.03291 | 26.28294 | 39935 ft | 447 kts | 274° |
| 2026-05-07 18:55 | 53.06140 | 25.87159 | 39928 ft | 448 kts | 273° |
| 2026-05-07 18:55 | 53.08849 | 25.45936 | 39941 ft | 448 kts | 273° |
| 2026-05-07 18:56 | 53.11416 | 25.04648 | 39944 ft | 450 kts | 272° |
| 2026-05-07 18:56 | 53.13851 | 24.63151 | 39966 ft | 451 kts | 272° |
| 2026-05-07 18:57 | 53.16147 | 24.21497 | 39974 ft | 452 kts | 272° |
| 2026-05-07 18:57 | 53.16847 | 24.08229 | 39984 ft | 453 kts | 272° |
| 2026-05-07 18:58 | 53.17388 | 23.97769 | 39985 ft | 453 kts | 271° |
| 2026-05-07 18:58 | 53.17567 | 23.87305 | 39992 ft | 449 kts | 262° |
| 2026-05-07 18:59 | 53.16926 | 23.76951 | 39990 ft | 449 kts | 261° |
| 2026-05-07 18:59 | 53.16144 | 23.66634 | 39990 ft | 449 kts | 260° |
| 2026-05-07 19:00 | 53.15341 | 23.56343 | 39995 ft | 449 kts | 260° |
| 2026-05-07 19:00 | 53.14534 | 23.46033 | 39996 ft | 449 kts | 259° |
| 2026-05-07 19:01 | 53.13648 | 23.35744 | 39992 ft | 449 kts | 259° |
| 2026-05-07 19:01 | 53.12733 | 23.25461 | 39990 ft | 449 kts | 259° |
| 2026-05-07 19:02 | 53.11818 | 23.15175 | 39995 ft | 449 kts | 259° |
| 2026-05-07 19:02 | 53.10904 | 23.04903 | 39996 ft | 449 kts | 259° |
| 2026-05-07 19:03 | 53.09982 | 22.94618 | 40000 ft | 449 kts | 259° |
| 2026-05-07 19:03 | 53.09049 | 22.84326 | 39997 ft | 450 kts | 259° |
| 2026-05-07 19:04 | 53.08106 | 22.74021 | 39998 ft | 450 kts | 258° |
| 2026-05-07 19:04 | 53.07155 | 22.63727 | 39994 ft | 451 kts | 258° |
| 2026-05-07 19:05 | 53.06192 | 22.53417 | 40000 ft | 452 kts | 258° |
| 2026-05-07 19:05 | 53.05219 | 22.43094 | 39997 ft | 452 kts | 258° |
| 2026-05-07 19:06 | 53.04237 | 22.32784 | 40002 ft | 453 kts | 258° |
| 2026-05-07 19:06 | 53.02748 | 22.17331 | 39996 ft | 454 kts | 258° |
| 2026-05-07 19:07 | 53.01741 | 22.06990 | 39996 ft | 454 kts | 258° |
| 2026-05-07 19:07 | 53.00725 | 21.96657 | 39998 ft | 454 kts | 258° |
| 2026-05-07 19:08 | 52.99698 | 21.86313 | 39999 ft | 454 kts | 258° |
| 2026-05-07 19:08 | 52.98662 | 21.75976 | 40000 ft | 454 kts | 258° |
| 2026-05-07 19:09 | 52.97613 | 21.65607 | 40000 ft | 456 kts | 258° |
| 2026-05-07 19:09 | 52.96553 | 21.55221 | 40002 ft | 457 kts | 258° |
| 2026-05-07 19:10 | 52.95485 | 21.44846 | 40002 ft | 457 kts | 258° |
| 2026-05-07 19:10 | 52.94407 | 21.34468 | 40002 ft | 457 kts | 258° |
| 2026-05-07 19:11 | 52.93321 | 21.24106 | 40002 ft | 457 kts | 258° |
| 2026-05-07 19:11 | 52.92225 | 21.13736 | 40009 ft | 456 kts | 258° |
| 2026-05-07 19:12 | 52.91120 | 21.03380 | 40002 ft | 456 kts | 258° |
| 2026-05-07 19:12 | 52.90007 | 20.93027 | 40008 ft | 456 kts | 258° |
| 2026-05-07 19:13 | 52.88884 | 20.82678 | 40008 ft | 457 kts | 257° |
| 2026-05-07 19:13 | 52.87751 | 20.72330 | 40014 ft | 457 kts | 257° |
| 2026-05-07 19:14 | 52.86609 | 20.61980 | 40018 ft | 457 kts | 257° |
| 2026-05-07 19:14 | 52.85456 | 20.51624 | 40015 ft | 458 kts | 257° |
| 2026-05-07 19:15 | 52.84293 | 20.41254 | 40010 ft | 459 kts | 257° |
| 2026-05-07 19:15 | 52.83122 | 20.30897 | 40199 ft | 458 kts | 257° |
| 2026-05-07 19:16 | 52.82732 | 20.27471 | 40357 ft | 457 kts | 257° |
| 2026-05-07 19:16 | 52.82136 | 20.22244 | 40598 ft | 456 kts | 257° |
| 2026-05-07 19:16 | 52.81545 | 20.17090 | 40801 ft | 456 kts | 257° |
| 2026-05-07 19:16 | 52.80960 | 20.12009 | 40992 ft | 457 kts | 257° |
| 2026-05-07 19:17 | 52.80356 | 20.06787 | 41174 ft | 457 kts | 257° |
| 2026-05-07 19:17 | 52.79766 | 20.01702 | 41346 ft | 457 kts | 257° |
| 2026-05-07 19:17 | 52.79165 | 19.96538 | 41523 ft | 457 kts | 257° |
| 2026-05-07 19:17 | 52.78562 | 19.91384 | 41694 ft | 457 kts | 257° |
| 2026-05-07 19:18 | 52.77957 | 19.86232 | 41859 ft | 458 kts | 257° |
| 2026-05-07 19:18 | 52.77348 | 19.81063 | 41985 ft | 459 kts | 257° |
| 2026-05-07 19:18 | 52.76114 | 19.70660 | 42024 ft | 465 kts | 257° |
| 2026-05-07 19:19 | 52.74852 | 19.60107 | 42032 ft | 470 kts | 257° |
| 2026-05-07 19:19 | 52.73580 | 19.49542 | 42021 ft | 469 kts | 257° |
| 2026-05-07 19:20 | 52.72300 | 19.38992 | 42027 ft | 469 kts | 257° |
| 2026-05-07 19:20 | 52.71010 | 19.28457 | 42045 ft | 469 kts | 257° |
| 2026-05-07 19:21 | 52.69709 | 19.17911 | 42033 ft | 469 kts | 257° |
| 2026-05-07 19:21 | 52.68399 | 19.07370 | 42047 ft | 469 kts | 256° |
| 2026-05-07 19:22 | 52.67079 | 18.96831 | 42047 ft | 470 kts | 256° |
| 2026-05-07 19:22 | 52.65747 | 18.86287 | 42043 ft | 470 kts | 256° |
| 2026-05-07 19:23 | 52.64404 | 18.75731 | 42040 ft | 472 kts | 256° |
| 2026-05-07 19:23 | 52.63048 | 18.65152 | 42063 ft | 473 kts | 256° |
| 2026-05-07 19:24 | 52.61682 | 18.54572 | 42050 ft | 473 kts | 256° |
| 2026-05-07 19:24 | 52.60306 | 18.43999 | 42057 ft | 473 kts | 256° |
| 2026-05-07 19:25 | 52.58922 | 18.33437 | 42058 ft | 473 kts | 256° |
| 2026-05-07 19:25 | 52.57527 | 18.22876 | 42060 ft | 472 kts | 256° |
| 2026-05-07 19:26 | 52.56123 | 18.12324 | 42064 ft | 473 kts | 256° |
| 2026-05-07 19:26 | 52.54709 | 18.01770 | 42066 ft | 473 kts | 256° |
| 2026-05-07 19:27 | 52.53286 | 17.91231 | 42070 ft | 473 kts | 256° |
| 2026-05-07 19:27 | 52.51854 | 17.80699 | 42070 ft | 472 kts | 256° |
| 2026-05-07 19:28 | 52.50414 | 17.70180 | 42087 ft | 473 kts | 256° |
| 2026-05-07 19:28 | 52.48962 | 17.59653 | 42070 ft | 473 kts | 256° |
| 2026-05-07 19:29 | 52.47500 | 17.49129 | 42073 ft | 473 kts | 256° |
| 2026-05-07 19:29 | 52.46028 | 17.38609 | 42074 ft | 473 kts | 256° |
| 2026-05-07 19:30 | 52.44548 | 17.28104 | 42073 ft | 473 kts | 255° |
| 2026-05-07 19:30 | 52.43058 | 17.17600 | 42073 ft | 473 kts | 255° |
| 2026-05-07 19:31 | 52.41559 | 17.07099 | 42074 ft | 473 kts | 255° |
| 2026-05-07 19:31 | 52.40049 | 16.96601 | 42073 ft | 474 kts | 255° |
| 2026-05-07 19:32 | 52.38529 | 16.86104 | 42074 ft | 474 kts | 255° |
| 2026-05-07 19:32 | 52.36322 | 16.70985 | 42076 ft | 474 kts | 255° |
| 2026-05-07 19:33 | 52.33225 | 16.50015 | 42072 ft | 474 kts | 255° |
| 2026-05-07 19:33 | 52.30092 | 16.29080 | 42078 ft | 474 kts | 255° |
| 2026-05-07 19:34 | 52.26924 | 16.08193 | 42072 ft | 474 kts | 255° |
| 2026-05-07 19:34 | 52.23716 | 15.87317 | 42074 ft | 475 kts | 255° |
| 2026-05-07 19:35 | 52.20467 | 15.66436 | 42070 ft | 475 kts | 255° |
| 2026-05-07 19:35 | 52.17184 | 15.45607 | 42076 ft | 475 kts | 254° |
| 2026-05-07 19:36 | 52.14197 | 15.26878 | 42079 ft | 475 kts | 254° |
| 2026-05-07 19:36 | 52.12522 | 15.16472 | 42075 ft | 475 kts | 254° |
| 2026-05-07 19:37 | 52.10840 | 15.06080 | 42075 ft | 475 kts | 254° |
| 2026-05-07 19:37 | 52.09148 | 14.95695 | 42075 ft | 475 kts | 254° |
| 2026-05-07 19:38 | 52.07445 | 14.85308 | 42092 ft | 475 kts | 254° |
| 2026-05-07 19:38 | 52.06156 | 14.74774 | 42078 ft | 477 kts | 265° |
| 2026-05-07 19:39 | 52.06187 | 14.64044 | 42078 ft | 479 kts | 271° |
| 2026-05-07 19:39 | 52.06624 | 14.53247 | 42078 ft | 479 kts | 272° |
| 2026-05-07 19:40 | 52.07101 | 14.42439 | 42078 ft | 479 kts | 272° |
| 2026-05-07 19:40 | 52.07529 | 14.31631 | 42078 ft | 479 kts | 272° |
| 2026-05-07 19:41 | 52.07922 | 14.20821 | 42080 ft | 479 kts | 271° |
| 2026-05-07 19:41 | 52.08302 | 14.09930 | 42080 ft | 479 kts | 271° |
| 2026-05-07 19:42 | 52.08667 | 13.99207 | 42086 ft | 479 kts | 271° |
| 2026-05-07 19:42 | 52.09027 | 13.88379 | 42086 ft | 479 kts | 271° |
| 2026-05-07 19:43 | 52.09378 | 13.77554 | 42091 ft | 479 kts | 271° |
| 2026-05-07 19:43 | 52.09701 | 13.66731 | 42096 ft | 479 kts | 271° |
| 2026-05-07 19:44 | 52.09938 | 13.55904 | 42095 ft | 479 kts | 270° |
| 2026-05-07 19:44 | 52.10156 | 13.45077 | 42095 ft | 479 kts | 270° |
| 2026-05-07 19:45 | 52.10376 | 13.34232 | 42098 ft | 479 kts | 270° |
| 2026-05-07 19:45 | 52.10592 | 13.23403 | 42089 ft | 479 kts | 270° |
| 2026-05-07 19:46 | 52.10799 | 13.12560 | 42089 ft | 479 kts | 270° |
| 2026-05-07 19:46 | 52.11274 | 12.85456 | 42096 ft | 479 kts | 270° |
| 2026-05-07 19:47 | 52.11902 | 12.42093 | 42084 ft | 479 kts | 270° |
| 2026-05-07 19:47 | 52.12371 | 11.98798 | 42091 ft | 479 kts | 270° |
| 2026-05-07 19:48 | 52.12678 | 11.56011 | 42094 ft | 478 kts | 269° |
| 2026-05-07 19:48 | 52.12731 | 11.45195 | 42094 ft | 478 kts | 269° |
| 2026-05-07 19:49 | 52.12775 | 11.34373 | 42101 ft | 478 kts | 269° |
| 2026-05-07 19:49 | 52.12808 | 11.23568 | 42097 ft | 477 kts | 269° |
| 2026-05-07 19:50 | 52.12832 | 11.12768 | 42097 ft | 477 kts | 269° |
| 2026-05-07 19:50 | 52.12846 | 11.02012 | 42548 ft | 471 kts | 269° |
| 2026-05-07 19:51 | 52.12849 | 10.96711 | 42883 ft | 467 kts | 269° |
| 2026-05-07 19:51 | 52.12850 | 10.91429 | 43081 ft | 467 kts | 269° |
| 2026-05-07 19:51 | 52.12353 | 10.80858 | 43106 ft | 471 kts | 257° |
| 2026-05-07 19:52 | 52.10735 | 10.70479 | 43101 ft | 475 kts | 253° |
| 2026-05-07 19:52 | 52.08819 | 10.60189 | 43101 ft | 475 kts | 252° |
| 2026-05-07 19:53 | 52.06895 | 10.50002 | 43101 ft | 475 kts | 252° |
| 2026-05-07 19:53 | 52.04989 | 10.39766 | 43096 ft | 474 kts | 252° |
| 2026-05-07 19:54 | 52.03078 | 10.29448 | 43005 ft | 471 kts | 252° |
| 2026-05-07 19:54 | 52.02153 | 10.24468 | 42723 ft | 462 kts | 252° |
| 2026-05-07 19:54 | 52.01232 | 10.19516 | 42331 ft | 456 kts | 252° |
| 2026-05-07 19:55 | 52.00315 | 10.14607 | 41837 ft | 453 kts | 252° |
| 2026-05-07 19:55 | 51.99401 | 10.09724 | 41266 ft | 451 kts | 252° |
| 2026-05-07 19:55 | 51.98486 | 10.04860 | 40701 ft | 450 kts | 252° |
| 2026-05-07 19:55 | 51.97574 | 10.00019 | 40130 ft | 450 kts | 253° |
| 2026-05-07 19:56 | 51.96658 | 9.95169 | 39558 ft | 449 kts | 253° |
| 2026-05-07 19:56 | 51.95742 | 9.90331 | 39013 ft | 449 kts | 253° |
| 2026-05-07 19:56 | 51.94822 | 9.85483 | 38354 ft | 449 kts | 253° |
| 2026-05-07 19:56 | 51.93901 | 9.80648 | 37586 ft | 451 kts | 253° |
| 2026-05-07 19:57 | 51.92974 | 9.75785 | 36830 ft | 452 kts | 253° |
| 2026-05-07 19:57 | 51.92041 | 9.70909 | 36107 ft | 454 kts | 253° |
| 2026-05-07 19:57 | 51.91106 | 9.66032 | 35403 ft | 455 kts | 253° |
| 2026-05-07 19:57 | 51.90164 | 9.61136 | 34726 ft | 455 kts | 253° |
| 2026-05-07 19:58 | 51.89220 | 9.56241 | 34279 ft | 456 kts | 253° |
| 2026-05-07 19:58 | 51.88271 | 9.51328 | 34121 ft | 459 kts | 253° |
| 2026-05-07 19:58 | 51.86355 | 9.41452 | 34102 ft | 460 kts | 253° |
| 2026-05-07 19:59 | 51.84432 | 9.31591 | 34105 ft | 459 kts | 253° |
| 2026-05-07 19:59 | 51.82829 | 9.23406 | 34107 ft | 459 kts | 253° |
| 2026-05-07 20:00 | 51.80894 | 9.13575 | 34104 ft | 459 kts | 252° |
| 2026-05-07 20:00 | 51.78952 | 9.03764 | 34104 ft | 459 kts | 252° |
| 2026-05-07 20:01 | 51.77006 | 8.93980 | 33832 ft | 456 kts | 252° |
| 2026-05-07 20:01 | 51.76032 | 8.89097 | 33557 ft | 458 kts | 252° |
| 2026-05-07 20:01 | 51.75050 | 8.84194 | 33285 ft | 459 kts | 252° |
| 2026-05-07 20:02 | 51.74068 | 8.79296 | 33007 ft | 459 kts | 252° |
| 2026-05-07 20:02 | 51.73083 | 8.74399 | 32742 ft | 457 kts | 252° |
| 2026-05-07 20:02 | 51.72103 | 8.69538 | 32460 ft | 454 kts | 252° |
| 2026-05-07 20:02 | 51.71129 | 8.64720 | 32190 ft | 451 kts | 252° |
| 2026-05-07 20:03 | 51.70158 | 8.59931 | 31940 ft | 449 kts | 252° |
| 2026-05-07 20:03 | 51.69189 | 8.55160 | 31690 ft | 447 kts | 252° |
| 2026-05-07 20:03 | 51.68222 | 8.50409 | 31422 ft | 445 kts | 252° |
| 2026-05-07 20:03 | 51.67258 | 8.45688 | 31166 ft | 443 kts | 252° |
| 2026-05-07 20:04 | 51.66296 | 8.40983 | 30919 ft | 441 kts | 252° |
| 2026-05-07 20:04 | 51.65335 | 8.36296 | 30661 ft | 439 kts | 252° |
| 2026-05-07 20:04 | 51.64378 | 8.31641 | 30412 ft | 438 kts | 252° |
| 2026-05-07 20:04 | 51.63421 | 8.26997 | 30164 ft | 436 kts | 252° |
| 2026-05-07 20:05 | 51.62466 | 8.22373 | 29869 ft | 434 kts | 252° |
| 2026-05-07 20:05 | 51.61517 | 8.17787 | 29589 ft | 430 kts | 252° |
| 2026-05-07 20:05 | 51.60300 | 8.11924 | 29219 ft | 427 kts | 251° |
| 2026-05-07 20:05 | 51.58177 | 8.01735 | 28606 ft | 423 kts | 251° |
| 2026-05-07 20:06 | 51.56307 | 7.92804 | 28116 ft | 420 kts | 251° |
| 2026-05-07 20:06 | 51.54444 | 7.83946 | 28092 ft | 418 kts | 251° |
| 2026-05-07 20:06 | 51.50702 | 7.66264 | 28094 ft | 417 kts | 251° |
| 2026-05-07 20:07 | 51.46954 | 7.48715 | 28087 ft | 416 kts | 251° |
| 2026-05-07 20:07 | 51.43133 | 7.31220 | 28102 ft | 416 kts | 247° |
| 2026-05-07 20:08 | 51.40252 | 7.23221 | 28077 ft | 416 kts | 236° |
| 2026-05-07 20:08 | 51.36833 | 7.15696 | 28081 ft | 416 kts | 233° |
| 2026-05-07 20:08 | 51.29887 | 7.00999 | 28085 ft | 415 kts | 233° |
| 2026-05-07 20:09 | 51.22958 | 6.86277 | 28085 ft | 415 kts | 233° |
| 2026-05-07 20:10 | 51.12533 | 6.64254 | 27791 ft | 414 kts | 233° |
| 2026-05-07 20:10 | 51.09034 | 6.57030 | 27255 ft | 411 kts | 229° |
| 2026-05-07 20:10 | 51.05102 | 6.50481 | 26739 ft | 408 kts | 226° |
| 2026-05-07 20:10 | 51.01089 | 6.44126 | 26225 ft | 406 kts | 226° |
| 2026-05-07 20:11 | 50.97090 | 6.37858 | 25728 ft | 403 kts | 226° |
| 2026-05-07 20:11 | 50.93805 | 6.32711 | 25312 ft | 401 kts | 226° |
| 2026-05-07 20:11 | 50.91826 | 6.29607 | 25063 ft | 400 kts | 226° |
| 2026-05-07 20:11 | 50.89856 | 6.26519 | 24763 ft | 397 kts | 226° |
| 2026-05-07 20:12 | 50.87903 | 6.23460 | 24261 ft | 393 kts | 226° |
| 2026-05-07 20:12 | 50.85988 | 6.20463 | 23676 ft | 392 kts | 225° |
| 2026-05-07 20:12 | 50.84055 | 6.17442 | 23018 ft | 390 kts | 225° |
| 2026-05-07 20:12 | 50.82127 | 6.14433 | 22415 ft | 387 kts | 225° |
| 2026-05-07 20:13 | 50.80218 | 6.11456 | 21820 ft | 384 kts | 225° |
| 2026-05-07 20:13 | 50.78323 | 6.08506 | 21231 ft | 381 kts | 225° |
| 2026-05-07 20:13 | 50.76441 | 6.05579 | 20644 ft | 378 kts | 225° |
| 2026-05-07 20:13 | 50.74575 | 6.02679 | 20053 ft | 376 kts | 225° |
| 2026-05-07 20:14 | 50.72820 | 5.99641 | 19480 ft | 373 kts | 230° |
| 2026-05-07 20:14 | 50.71162 | 5.96508 | 18902 ft | 371 kts | 231° |
| 2026-05-07 20:14 | 50.69621 | 5.93320 | 18524 ft | 362 kts | 237° |
| 2026-05-07 20:14 | 50.68507 | 5.89770 | 17845 ft | 362 kts | 251° |
| 2026-05-07 20:15 | 50.68058 | 5.85905 | 17314 ft | 357 kts | 268° |
| 2026-05-07 20:15 | 50.68381 | 5.82086 | 16557 ft | 348 kts | 286° |
| 2026-05-07 20:15 | 50.69256 | 5.78550 | 15422 ft | 346 kts | 292° |
| 2026-05-07 20:15 | 50.70251 | 5.75112 | 14440 ft | 342 kts | 293° |
| 2026-05-07 20:16 | 50.71229 | 5.71756 | 13875 ft | 335 kts | 293° |
| 2026-05-07 20:16 | 50.72196 | 5.68401 | 13319 ft | 334 kts | 293° |
| 2026-05-07 20:16 | 50.73147 | 5.65083 | 12802 ft | 332 kts | 293° |
| 2026-05-07 20:16 | 50.74092 | 5.61768 | 12262 ft | 330 kts | 293° |
| 2026-05-07 20:17 | 50.75029 | 5.58473 | 11751 ft | 328 kts | 293° |
| 2026-05-07 20:17 | 50.75959 | 5.55192 | 11219 ft | 326 kts | 293° |
| 2026-05-07 20:17 | 50.76882 | 5.51931 | 10832 ft | 325 kts | 293° |
| 2026-05-07 20:17 | 50.77808 | 5.48652 | 10718 ft | 327 kts | 293° |
| 2026-05-07 20:18 | 50.78727 | 5.45396 | 10599 ft | 323 kts | 293° |
| 2026-05-07 20:18 | 50.79641 | 5.42154 | 10471 ft | 323 kts | 293° |
| 2026-05-07 20:18 | 50.80552 | 5.38915 | 10120 ft | 322 kts | 293° |
| 2026-05-07 20:18 | 50.81458 | 5.35691 | 9644 ft | 319 kts | 293° |
| 2026-05-07 20:19 | 50.82354 | 5.32496 | 9216 ft | 317 kts | 293° |
| 2026-05-07 20:19 | 50.83246 | 5.29313 | 8817 ft | 316 kts | 293° |
| 2026-05-07 20:19 | 50.84126 | 5.26170 | 8479 ft | 303 kts | 293° |
| 2026-05-07 20:19 | 50.84948 | 5.23230 | 8071 ft | 283 kts | 293° |
| 2026-05-07 20:20 | 50.85735 | 5.20421 | 7714 ft | 278 kts | 294° |
| 2026-05-07 20:20 | 50.86719 | 5.17786 | 7395 ft | 279 kts | 305° |
| 2026-05-07 20:20 | 50.87889 | 5.15332 | 7083 ft | 278 kts | 307° |
| 2026-05-07 20:20 | 50.89073 | 5.12936 | 6703 ft | 275 kts | 307° |
| 2026-05-07 20:21 | 50.90304 | 5.10622 | 6223 ft | 274 kts | 316° |
| 2026-05-07 20:21 | 50.91821 | 5.09126 | 5789 ft | 273 kts | 338° |
| 2026-05-07 20:21 | 50.93528 | 5.07846 | 5419 ft | 269 kts | 329° |
| 2026-05-07 20:21 | 50.95026 | 5.06170 | 5235 ft | 258 kts | 323° |
| 2026-05-07 20:22 | 50.96426 | 5.04453 | 4980 ft | 252 kts | 322° |
| 2026-05-07 20:22 | 50.97781 | 5.02765 | 4634 ft | 250 kts | 322° |
| 2026-05-07 20:22 | 50.99078 | 5.00958 | 4263 ft | 249 kts | 310° |
| 2026-05-07 20:22 | 50.99750 | 4.98496 | 4027 ft | 242 kts | 278° |
| 2026-05-07 20:23 | 50.99785 | 4.95875 | 3990 ft | 237 kts | 265° |
| 2026-05-07 20:23 | 50.99618 | 4.93344 | 3981 ft | 221 kts | 263° |
| 2026-05-07 20:23 | 50.99433 | 4.90955 | 4001 ft | 213 kts | 262° |
| 2026-05-07 20:23 | 50.99243 | 4.88732 | 3999 ft | 193 kts | 262° |
| 2026-05-07 20:24 | 50.98912 | 4.86773 | 3990 ft | 177 kts | 250° |
| 2026-05-07 20:24 | 50.98409 | 4.85022 | 4005 ft | 174 kts | 232° |
| 2026-05-07 20:24 | 50.97623 | 4.83586 | 4003 ft | 172 kts | 224° |
| 2026-05-07 20:24 | 50.96796 | 4.82219 | 3984 ft | 173 kts | 229° |
| 2026-05-07 20:25 | 50.96304 | 4.80456 | 3920 ft | 175 kts | 252° |
| 2026-05-07 20:25 | 50.95950 | 4.78636 | 3699 ft | 172 kts | 251° |
| 2026-05-07 20:25 | 50.95548 | 4.76847 | 3456 ft | 172 kts | 248° |
| 2026-05-07 20:25 | 50.95129 | 4.75068 | 3214 ft | 172 kts | 249° |
| 2026-05-07 20:26 | 50.94720 | 4.73288 | 2971 ft | 172 kts | 249° |
| 2026-05-07 20:26 | 50.94319 | 4.71540 | 2739 ft | 164 kts | 249° |
| 2026-05-07 20:26 | 50.93940 | 4.69895 | 2521 ft | 154 kts | 249° |
| 2026-05-07 20:26 | 50.93585 | 4.68355 | 2302 ft | 144 kts | 249° |
| 2026-05-07 20:27 | 50.93250 | 4.66899 | 2140 ft | 137 kts | 249° |
| 2026-05-07 20:27 | 50.92925 | 4.65487 | 1950 ft | 137 kts | 249° |
| 2026-05-07 20:27 | 50.92600 | 4.64075 | 1778 ft | 137 kts | 249° |
| 2026-05-07 20:27 | 50.92275 | 4.62662 | 1583 ft | 136 kts | 249° |
| 2026-05-07 20:28 | 50.91950 | 4.61250 | 1403 ft | 136 kts | 249° |
| 2026-05-07 20:28 | 50.91626 | 4.59843 | 1213 ft | 136 kts | 249° |
| 2026-05-07 20:28 | 50.91303 | 4.58442 | 1028 ft | 135 kts | 250° |
| 2026-05-07 20:28 | 50.90980 | 4.57040 | 828 ft | 135 kts | 250° |
| 2026-05-07 20:29 | 50.90659 | 4.55647 | 652 ft | 134 kts | 250° |
| 2026-05-07 20:29 | 50.90340 | 4.54263 | 463 ft | 133 kts | 250° |
| 2026-05-07 20:29 | 50.90025 | 4.52894 | 294 ft | 132 kts | 250° |
| 2026-05-07 20:29 | 50.89716 | 4.51554 | 180 ft | 125 kts | 250° |
| 2026-05-07 20:30 | 50.89474 | 4.50508 | 182 ft | 63 kts | 250° |
| 2026-05-07 20:30 | 50.89420 | 4.50273 | 182 ft | 1 kts | 250° |
| 2026-05-07 20:30 | 50.89378 | 4.50078 | 183 ft | 43 kts | 250° |
| 2026-05-07 20:30 | 50.89334 | 4.49826 | 184 ft | 16 kts | 273° |
| 2026-05-07 20:31 | 50.89403 | 4.49600 | 175 ft | 29 kts | 307° |
| 2026-05-07 20:31 | 50.89486 | 4.49426 | 171 ft | 5 kts | 307° |
| 2026-05-07 20:31 | 50.89534 | 4.49327 | 168 ft | 5 kts | 307° |
| 2026-05-07 20:31 | 50.89556 | 4.49280 | 165 ft | 1 kts | 307° |
| 2026-05-07 20:32 | 50.89559 | 4.49275 | 165 ft | 0 kts | 307° |
| 2026-05-07 20:32 | 50.89570 | 4.49251 | 163 ft | 11 kts | 307° |
| 2026-05-07 20:32 | 50.89631 | 4.49159 | 159 ft | 13 kts | 341° |
| 2026-05-07 20:32 | 50.89723 | 4.49175 | 154 ft | 11 kts | 15° |
| 2026-05-07 20:33 | 50.89817 | 4.49214 | 149 ft | 18 kts | 14° |
| 2026-05-07 20:33 | 50.89879 | 4.49239 | 145 ft | 6 kts | 14° |
| 2026-05-07 20:33 | 50.89944 | 4.49244 | 142 ft | 1 kts | 336° |
| 2026-05-07 20:33 | 50.89960 | 4.49191 | 141 ft | 8 kts | 269° |
| 2026-05-07 20:34 | 50.89926 | 4.49040 | 142 ft | 20 kts | 245° |
| 2026-05-07 20:34 | 50.89913 | 4.48996 | 142 ft | 0 kts | 245° |
| 2026-05-07 20:34 | 50.89912 | 4.48994 | 142 ft | 0 kts | 245° |
| 2026-05-07 20:34 | 50.89905 | 4.48968 | 142 ft | 7 kts | 245° |
| 2026-05-07 20:35 | 50.89882 | 4.48887 | 142 ft | 0 kts | 246° |
| 2026-05-07 20:35 | 50.89869 | 4.48836 | 142 ft | 5 kts | 258° |
| 2026-05-07 20:35 | 50.89901 | 4.48772 | 140 ft | 11 kts | 326° |
| 2026-05-07 20:35 | 50.89931 | 4.48747 | 138 ft | 0 kts | 334° |
| 2026-05-07 20:36 | 50.89941 | 4.48739 | 137 ft | 0 kts | 334° |